Time;durP1;ratioP1;P1;durP2;ratioP2;P2;SDS_P1;SDS_P2;PMS_P1;PMS_P2;Temp;Humidity;BMP_temperature;BMP_pressure;BME280_temperature;BME280_humidity;BME280_pressure;Samples;Min_cycle;Max_cycle;Signal;HPM_P1;HPM_P2
2023/10/18 00:00:18;;;;;;;14.07;12.57;;;7.30;99.90;;;;;;4954944;28;20191;-85
2023/10/18 00:02:45;;;;;;;12.50;11.23;;;6.80;99.90;;;;;;4955560;28;20217;-85
2023/10/18 00:05:11;;;;;;;14.70;13.05;;;7.00;99.90;;;;;;4959022;28;20185;-85
2023/10/18 00:07:37;;;;;;;14.90;11.33;;;7.00;99.90;;;;;;4950095;28;20235;-85
2023/10/18 00:10:04;;;;;;;17.63;14.07;;;6.70;99.90;;;;;;4955860;28;20239;-86
2023/10/18 00:12:33;;;;;;;13.40;12.10;;;6.80;99.90;;;;;;4956629;29;20208;-85
2023/10/18 00:14:59;;;;;;;12.50;11.20;;;7.00;99.90;;;;;;4957274;28;20545;-85
2023/10/18 00:17:26;;;;;;;12.20;10.57;;;7.00;99.90;;;;;;4956980;28;20192;-85
2023/10/18 00:19:51;;;;;;;14.70;11.10;;;6.80;99.90;;;;;;4974693;28;20208;-85
2023/10/18 00:22:17;;;;;;;13.30;11.77;;;6.80;99.90;;;;;;4973621;28;20196;-85
2023/10/18 00:24:42;;;;;;;15.30;11.20;;;7.10;99.90;;;;;;4961759;29;20196;-86
2023/10/18 00:27:09;;;;;;;12.93;11.63;;;7.30;99.90;;;;;;4957761;29;20189;-85
2023/10/18 00:29:36;;;;;;;13.35;11.90;;;6.90;99.90;;;;;;4955531;29;20615;-86
2023/10/18 00:32:01;;;;;;;15.32;12.15;;;6.80;99.90;;;;;;4957199;29;20916;-85
2023/10/18 00:34:28;;;;;;;12.20;10.90;;;7.20;99.90;;;;;;4957479;29;20213;-85
2023/10/18 00:36:54;;;;;;;12.55;11.25;;;7.10;99.90;;;;;;4956819;29;20196;-85
2023/10/18 00:39:21;;;;;;;14.98;11.73;;;6.70;99.90;;;;;;4957849;28;20189;-86
2023/10/18 00:41:52;;;;;;;12.63;11.25;;;6.90;99.90;;;;;;4954405;28;20271;-85
2023/10/18 00:44:21;;;;;;;12.68;11.38;;;6.90;99.90;;;;;;4948745;29;20299;-86
2023/10/18 00:46:47;;;;;;;14.00;11.77;;;6.70;99.90;;;;;;4950226;28;20563;-86
2023/10/18 00:49:16;;;;;;;13.60;11.98;;;7.00;99.90;;;;;;4953107;28;20757;-85
2023/10/18 00:51:46;;;;;;;13.93;11.45;;;6.40;99.90;;;;;;4949339;28;20734;-85
2023/10/18 00:54:12;;;;;;;13.30;11.23;;;6.90;99.90;;;;;;4952731;29;20216;-86
2023/10/18 00:56:46;;;;;;;13.70;11.40;;;6.20;99.90;;;;;;4950934;28;20272;-85
2023/10/18 00:59:21;;;;;;;13.35;11.80;;;7.00;99.90;;;;;;4947909;29;20185;-86
2023/10/18 01:01:58;;;;;;;12.02;10.57;;;6.80;99.90;;;;;;4950786;29;20234;-86
2023/10/18 01:04:26;;;;;;;13.88;11.75;;;6.50;99.90;;;;;;4951624;29;20223;-86
2023/10/18 01:06:51;;;;;;;12.82;11.23;;;7.00;99.90;;;;;;4954899;28;20173;-86
2023/10/18 01:09:18;;;;;;;13.40;11.93;;;6.50;99.90;;;;;;4972247;28;20250;-86
2023/10/18 01:11:46;;;;;;;12.13;10.73;;;6.70;99.90;;;;;;4956744;28;20508;-85
2023/10/18 01:14:18;;;;;;;13.65;11.90;;;6.40;99.90;;;;;;4951414;28;20464;-85
2023/10/18 01:16:44;;;;;;;13.30;11.23;;;6.40;99.90;;;;;;4939078;28;20204;-85
2023/10/18 01:19:14;;;;;;;13.07;11.70;;;6.30;99.90;;;;;;4958944;28;20185;-85
2023/10/18 01:21:45;;;;;;;12.73;11.43;;;6.70;99.90;;;;;;4973790;28;20232;-85
2023/10/18 01:24:14;;;;;;;14.93;11.55;;;7.10;99.90;;;;;;4971039;28;20296;-85
2023/10/18 01:26:40;;;;;;;13.10;11.40;;;6.70;99.90;;;;;;4974395;28;20290;-86
2023/10/18 01:29:09;;;;;;;15.48;11.20;;;6.80;99.90;;;;;;4945609;28;20232;-85
2023/10/18 01:31:35;;;;;;;14.95;10.98;;;6.20;99.90;;;;;;4957646;28;20208;-86
2023/10/18 01:34:07;;;;;;;12.50;11.18;;;6.70;99.90;;;;;;4951149;28;20694;-85
2023/10/18 01:36:32;;;;;;;12.30;11.00;;;6.50;99.90;;;;;;4953941;28;20297;-86
2023/10/18 01:38:59;;;;;;;14.03;11.97;;;6.40;99.90;;;;;;4953255;28;20233;-85
2023/10/18 01:41:33;;;;;;;11.65;10.48;;;6.30;99.90;;;;;;4953642;29;20574;-86
2023/10/18 01:44:07;;;;;;;15.93;11.40;;;6.50;99.90;;;;;;4952741;29;20203;-86
2023/10/18 01:46:39;;;;;;;13.65;11.98;;;6.70;99.90;;;;;;4963930;28;20664;-86
2023/10/18 01:49:06;;;;;;;14.43;11.85;;;6.40;99.90;;;;;;4954170;28;20216;-86
2023/10/18 01:51:32;;;;;;;15.65;13.02;;;6.30;99.90;;;;;;4965919;28;20208;-85
2023/10/18 01:54:02;;;;;;;13.20;11.77;;;6.60;99.90;;;;;;4952235;29;20232;-86
2023/10/18 01:56:28;;;;;;;13.82;11.95;;;6.50;99.90;;;;;;4954196;29;20968;-86
2023/10/18 01:58:54;;;;;;;13.23;11.93;;;6.40;99.90;;;;;;4949936;28;20193;-86
2023/10/18 02:01:20;;;;;;;15.07;12.50;;;6.10;99.90;;;;;;4955381;28;20827;-85
2023/10/18 02:03:47;;;;;;;14.53;12.67;;;6.10;99.90;;;;;;4955410;28;20224;-86
2023/10/18 02:06:16;;;;;;;12.68;11.02;;;6.60;99.90;;;;;;4953331;29;20566;-85
2023/10/18 02:08:41;;;;;;;14.32;12.00;;;6.20;99.90;;;;;;4956731;29;20193;-85
2023/10/18 02:11:11;;;;;;;13.87;11.33;;;6.60;99.90;;;;;;4972639;29;20278;-85
2023/10/18 02:13:37;;;;;;;15.02;12.13;;;6.30;99.90;;;;;;4969263;28;20213;-86
2023/10/18 02:16:06;;;;;;;14.57;12.80;;;6.20;99.90;;;;;;4954221;28;20195;-85
2023/10/18 02:18:33;;;;;;;13.52;11.95;;;6.20;99.90;;;;;;4955053;29;20453;-85
2023/10/18 02:21:00;;;;;;;13.40;11.63;;;6.50;99.90;;;;;;4957286;28;20188;-85
2023/10/18 02:23:33;;;;;;;16.75;11.23;;;6.30;99.90;;;;;;4953399;29;20216;-85
2023/10/18 02:26:00;;;;;;;15.85;10.73;;;6.70;99.90;;;;;;4954412;29;20688;-85
2023/10/18 02:28:27;;;;;;;12.35;10.45;;;6.20;99.90;;;;;;4952954;29;20733;-85
2023/10/18 02:30:58;;;;;;;14.10;12.55;;;6.40;99.90;;;;;;4953642;29;20267;-85
2023/10/18 02:33:24;;;;;;;12.65;11.35;;;6.70;99.90;;;;;;4947388;28;20215;-85
2023/10/18 02:35:50;;;;;;;13.48;12.07;;;6.40;99.90;;;;;;4955945;28;20176;-85
2023/10/18 02:38:15;;;;;;;14.20;11.23;;;6.70;99.90;;;;;;4954635;28;20235;-85
2023/10/18 02:40:43;;;;;;;15.68;12.50;;;6.50;99.90;;;;;;4953829;28;20257;-85
2023/10/18 02:43:11;;;;;;;13.90;12.05;;;6.50;99.90;;;;;;4956958;28;20208;-85
2023/10/18 02:45:39;;;;;;;15.35;13.75;;;6.40;99.90;;;;;;4956665;28;20198;-85
2023/10/18 02:48:08;;;;;;;14.07;11.90;;;6.50;99.90;;;;;;4968774;28;20191;-85
2023/10/18 02:50:34;;;;;;;13.80;11.48;;;6.30;99.90;;;;;;4967827;29;20209;-85
2023/10/18 02:53:00;;;;;;;13.30;11.70;;;6.80;99.90;;;;;;4959718;28;20208;-85
2023/10/18 02:55:26;;;;;;;13.60;12.18;;;6.20;99.90;;;;;;4955875;28;20189;-85
2023/10/18 02:57:52;;;;;;;13.87;12.07;;;6.40;99.90;;;;;;4954987;28;20239;-86
2023/10/18 03:00:18;;;;;;;13.38;11.27;;;6.70;99.90;;;;;;4955153;29;20809;-86
2023/10/18 03:02:44;;;;;;;15.17;12.10;;;6.00;99.90;;;;;;4954003;28;20228;-85
2023/10/18 03:05:11;;;;;;;11.98;10.77;;;6.30;99.90;;;;;;4951621;28;20271;-85
2023/10/18 03:07:37;;;;;;;15.65;12.98;;;6.90;99.90;;;;;;4954129;29;20279;-86
2023/10/18 03:10:11;;;;;;;14.23;12.55;;;6.40;99.90;;;;;;4953972;28;20204;-85
2023/10/18 03:12:37;;;;;;;15.30;12.27;;;6.20;99.90;;;;;;4949461;28;20792;-86
2023/10/18 03:15:12;;;;;;;15.02;13.02;;;6.10;99.90;;;;;;4953928;29;20239;-86
2023/10/18 03:17:37;;;;;;;13.20;11.52;;;6.30;99.90;;;;;;4952612;28;20275;-85
2023/10/18 03:20:19;;;;;;;14.90;12.47;;;6.80;99.90;;;;;;4956916;29;20276;-85
2023/10/18 03:22:45;;;;;;;12.52;11.27;;;6.40;99.90;;;;;;4955752;28;20303;-86
2023/10/18 03:25:16;;;;;;;13.50;12.07;;;6.50;99.90;;;;;;4952371;29;20621;-86
2023/10/18 03:27:49;;;;;;;14.18;12.52;;;6.00;99.90;;;;;;4954012;29;20181;-86
2023/10/18 03:30:19;;;;;;;14.35;12.52;;;6.20;99.90;;;;;;4958064;28;20205;-85
2023/10/18 03:32:49;;;;;;;14.90;12.95;;;6.30;99.90;;;;;;4955952;28;20209;-85
2023/10/18 03:35:21;;;;;;;16.55;12.45;;;7.30;99.90;;;;;;4949909;29;20276;-86
2023/10/18 03:37:47;;;;;;;15.50;12.77;;;6.30;99.90;;;;;;4951799;28;20181;-85
2023/10/18 03:40:27;;;;;;;13.40;12.00;;;6.20;99.90;;;;;;4953966;28;20934;-86
2023/10/18 03:42:54;;;;;;;14.98;13.48;;;6.70;99.90;;;;;;4955150;29;20211;-86
2023/10/18 03:45:22;;;;;;;15.93;12.93;;;6.70;99.90;;;;;;4956685;29;20665;-85
2023/10/18 03:48:06;;;;;;;13.93;12.40;;;6.50;99.90;;;;;;4952486;28;20199;-86
2023/10/18 03:50:40;;;;;;;12.68;11.38;;;6.30;99.90;;;;;;4955148;28;20223;-85
2023/10/18 03:53:13;;;;;;;16.08;13.02;;;6.30;99.90;;;;;;4957326;28;20204;-86
2023/10/18 03:55:42;;;;;;;13.88;12.43;;;6.20;99.90;;;;;;4986038;28;20175;-86
2023/10/18 03:58:08;;;;;;;15.75;13.45;;;6.30;99.90;;;;;;4975924;28;20206;-86
2023/10/18 04:00:43;;;;;;;16.20;13.37;;;6.20;99.90;;;;;;4974301;29;20362;-86
2023/10/18 04:03:12;;;;;;;17.05;13.52;;;6.30;99.90;;;;;;4974263;28;20256;-86
2023/10/18 04:05:44;;;;;;;16.05;14.15;;;6.40;99.90;;;;;;4972051;28;20289;-86
2023/10/18 04:08:14;;;;;;;15.73;12.93;;;6.40;99.90;;;;;;4973236;29;20275;-86
2023/10/18 04:10:44;;;;;;;15.57;12.45;;;6.20;99.90;;;;;;4972605;28;20222;-86
2023/10/18 04:13:14;;;;;;;15.60;13.43;;;6.20;99.90;;;;;;4957610;28;20650;-86
2023/10/18 04:15:45;;;;;;;18.15;13.95;;;6.50;99.90;;;;;;4965905;28;20197;-87
2023/10/18 04:18:12;;;;;;;13.48;11.93;;;6.50;99.90;;;;;;4961638;29;20189;-87
2023/10/18 04:20:43;;;;;;;15.88;14.18;;;6.40;99.90;;;;;;4957292;28;20220;-86
2023/10/18 04:23:30;;;;;;;15.52;13.30;;;6.40;99.90;;;;;;4971149;28;20254;-87
2023/10/18 04:25:58;;;;;;;15.90;13.35;;;6.80;99.90;;;;;;4959781;28;20269;-87
2023/10/18 04:28:25;;;;;;;15.05;13.45;;;6.30;99.90;;;;;;4959098;28;20220;-87
2023/10/18 04:30:59;;;;;;;17.33;14.30;;;6.50;99.90;;;;;;4958956;28;20260;-87
2023/10/18 04:33:35;;;;;;;15.98;14.27;;;5.90;99.90;;;;;;4954404;29;20609;-87
2023/10/18 04:36:11;;;;;;;14.90;13.30;;;6.30;99.90;;;;;;4959916;28;20197;-87
2023/10/18 04:38:47;;;;;;;17.13;13.60;;;6.30;99.90;;;;;;4973827;28;20189;-87
2023/10/18 04:43:46;;;;;;;14.85;12.70;;;6.30;99.90;;;;;;4959774;28;20208;-87
2023/10/18 04:54:08;;;;;;;15.70;13.80;;;6.30;99.90;;;;;;4960526;28;20204;-87
2023/10/18 04:56:34;;;;;;;19.13;14.50;;;6.30;99.90;;;;;;4965922;28;20196;-87
2023/10/18 04:59:10;;;;;;;16.20;14.02;;;5.80;99.90;;;;;;4971443;28;20563;-87
2023/10/18 05:01:41;;;;;;;18.20;14.82;;;6.00;99.90;;;;;;4956361;29;20192;-87
2023/10/18 05:04:19;;;;;;;18.33;14.60;;;6.40;99.90;;;;;;4971324;28;20231;-87
2023/10/18 05:06:56;;;;;;;17.48;14.30;;;6.50;99.90;;;;;;4955376;28;20573;-87
2023/10/18 05:09:35;;;;;;;18.65;14.45;;;6.80;99.90;;;;;;4952170;28;20208;-86
2023/10/18 05:12:16;;;;;;;17.02;15.13;;;6.90;99.90;;;;;;4951898;28;20185;-87
2023/10/18 05:17:48;;;;;;;15.40;13.80;;;6.50;99.90;;;;;;4948486;29;20218;-86
2023/10/18 05:34:53;;;;;;;;;;;;;;;;;;;;;
2023/10/18 05:37:14;;;;;;;19.20;15.75;;;6.30;99.90;;;;;;4953290;28;20711;-88
2023/10/18 05:39:59;;;;;;;;;;;;;;;;;;;;;
2023/10/18 06:23:07;;;;;;;20.00;16.63;;;;;;;;;;4955760;28;20268;-86
2023/10/18 06:25:35;;;;;;;20.00;16.38;;;7.30;99.90;;;;;;4955267;28;20280;-87
2023/10/18 06:28:01;;;;;;;18.40;15.57;;;7.50;99.90;;;;;;4963166;28;20185;-86
2023/10/18 06:30:27;;;;;;;26.33;17.30;;;7.40;99.90;;;;;;4965966;28;20213;-86
2023/10/18 06:32:52;;;;;;;24.10;18.00;;;7.30;99.90;;;;;;4953113;28;20201;-86
2023/10/18 06:35:19;;;;;;;18.60;15.73;;;7.30;99.90;;;;;;4958762;28;20818;-86
2023/10/18 06:37:45;;;;;;;19.25;16.13;;;7.40;99.90;;;;;;4954864;28;20623;-88
2023/10/18 06:40:22;;;;;;;19.60;15.93;;;7.40;99.90;;;;;;4952347;28;20383;-87
2023/10/18 06:42:48;;;;;;;19.17;15.52;;;7.40;99.90;;;;;;4954602;28;20537;-86
2023/10/18 06:45:18;;;;;;;21.38;16.95;;;7.40;99.90;;;;;;4954996;28;20581;-86
2023/10/18 06:47:44;;;;;;;19.38;15.23;;;7.50;99.90;;;;;;4954350;28;20284;-86
2023/10/18 06:50:11;;;;;;;17.25;14.35;;;7.80;99.90;;;;;;4951732;28;20268;-86
2023/10/18 06:52:52;;;;;;;19.25;15.18;;;7.60;99.90;;;;;;4950994;28;20209;-88
2023/10/18 07:00:53;;;;;;;18.88;15.70;;;7.70;99.90;;;;;;4955255;28;20215;-86
2023/10/18 07:03:24;;;;;;;18.55;16.17;;;7.60;99.90;;;;;;4956578;28;20684;-87
2023/10/18 07:05:52;;;;;;;22.90;16.63;;;7.60;99.90;;;;;;4934529;28;20224;-87
2023/10/18 07:08:20;;;;;;;18.15;15.70;;;8.10;99.90;;;;;;4933340;28;20188;-87
2023/10/18 07:10:56;;;;;;;19.20;14.68;;;7.90;99.90;;;;;;4951285;28;20677;-87
2023/10/18 07:18:36;;;;;;;18.75;15.65;;;6.50;99.90;;;;;;5149283;23;20333;-88
2023/10/18 07:21:24;;;;;;;18.35;16.48;;;7.20;99.90;;;;;;4992770;28;20200;-87
2023/10/18 07:23:55;;;;;;;22.23;17.05;;;9.20;99.90;;;;;;4996718;23;20235;-88
2023/10/18 07:26:22;;;;;;;17.42;15.52;;;7.80;99.90;;;;;;4984698;28;20558;-85
2023/10/18 07:28:49;;;;;;;19.80;15.43;;;9.10;99.90;;;;;;4982416;28;20188;-86
2023/10/18 07:31:18;;;;;;;18.95;14.65;;;10.10;99.90;;;;;;4987852;28;20558;-87
2023/10/18 07:33:44;;;;;;;18.35;15.50;;;11.00;99.90;;;;;;4988832;28;20212;-86
2023/10/18 07:36:17;;;;;;;19.00;14.80;;;8.60;99.90;;;;;;4991350;28;20190;-86
2023/10/18 07:38:56;;;;;;;22.38;16.10;;;9.70;99.90;;;;;;4989337;28;20184;-86
2023/10/18 07:41:27;;;;;;;18.92;15.93;;;9.60;99.90;;;;;;4984753;28;20189;-87
2023/10/18 07:46:25;;;;;;;16.52;14.18;;;8.90;99.90;;;;;;4960747;28;20245;-87
2023/10/18 07:48:53;;;;;;;16.83;15.00;;;9.20;99.90;;;;;;4956495;28;20209;-87
2023/10/18 07:51:23;;;;;;;16.33;14.32;;;10.60;99.90;;;;;;4955163;28;20558;-87
2023/10/18 07:53:53;;;;;;;19.38;15.10;;;10.80;99.90;;;;;;4971809;28;20253;-87
2023/10/18 07:56:29;;;;;;;20.98;16.25;;;10.80;99.90;;;;;;4958232;28;20676;-87
2023/10/18 07:59:26;;;;;;;17.02;13.63;;;10.00;99.90;;;;;;4953631;28;20189;-87
2023/10/18 08:01:51;;;;;;;20.58;13.68;;;9.40;99.90;;;;;;4961088;28;20190;-86
2023/10/18 08:04:22;;;;;;;17.48;14.82;;;10.00;99.90;;;;;;4956174;28;20563;-87
2023/10/18 08:07:00;;;;;;;20.45;15.70;;;10.80;99.90;;;;;;4957192;28;20241;-87
2023/10/18 08:09:29;;;;;;;17.15;14.77;;;10.40;99.90;;;;;;5136691;23;20232;-87
2023/10/18 08:12:08;;;;;;;18.20;14.85;;;10.90;99.90;;;;;;4941994;28;20198;-86
2023/10/18 08:14:33;;;;;;;16.98;15.18;;;10.20;99.90;;;;;;4953987;28;20191;-87
2023/10/18 08:17:08;;;;;;;17.40;15.00;;;10.40;99.90;;;;;;4954654;28;20329;-87
2023/10/18 08:19:43;;;;;;;20.50;15.45;;;9.70;99.90;;;;;;4956810;28;20449;-87
2023/10/18 08:22:22;;;;;;;19.80;13.95;;;10.60;99.90;;;;;;4954910;28;20186;-87
2023/10/18 08:24:51;;;;;;;20.20;16.60;;;10.80;99.90;;;;;;4962730;28;20266;-86
2023/10/18 08:27:18;;;;;;;18.25;16.10;;;12.20;99.90;;;;;;4958805;28;20186;-85
2023/10/18 08:29:44;;;;;;;21.80;14.93;;;10.80;99.90;;;;;;4959043;28;20344;-85
2023/10/18 08:34:38;;;;;;;17.60;15.70;;;11.00;99.90;;;;;;5126917;23;20253;-87
2023/10/18 08:37:06;;;;;;;17.30;14.65;;;11.00;99.90;;;;;;4950654;29;20199;-86
2023/10/18 08:39:32;;;;;;;15.95;14.32;;;12.80;99.90;;;;;;4954544;28;20224;-86
2023/10/18 08:42:12;;;;;;;16.37;14.70;;;13.50;99.90;;;;;;4975345;28;20172;-87
2023/10/18 08:44:45;;;;;;;16.15;14.52;;;11.00;99.90;;;;;;4943313;29;20665;-87
2023/10/18 08:47:13;;;;;;;17.77;15.75;;;11.40;99.90;;;;;;4951973;28;20189;-86
2023/10/18 08:49:45;;;;;;;16.33;14.15;;;12.80;99.90;;;;;;4934167;29;20219;-86
2023/10/18 08:52:11;;;;;;;16.60;15.00;;;11.80;99.90;;;;;;4934239;29;20178;-86
2023/10/18 08:54:41;;;;;;;18.98;14.85;;;13.10;99.90;;;;;;4937604;29;20333;-85
2023/10/18 08:57:11;;;;;;;17.27;15.48;;;12.20;99.90;;;;;;4934576;29;20181;-86
2023/10/18 08:59:43;;;;;;;17.73;14.93;;;13.20;99.90;;;;;;4933700;29;20190;-85
2023/10/18 09:02:39;;;;;;;16.30;14.63;;;11.90;99.90;;;;;;4945356;29;20217;-86
2023/10/18 09:05:07;;;;;;;16.08;14.00;;;12.00;99.90;;;;;;4936977;29;20185;-86
2023/10/18 09:07:44;;;;;;;16.95;15.20;;;12.30;99.90;;;;;;4932089;29;20190;-86
2023/10/18 09:10:32;;;;;;;15.18;13.57;;;12.20;99.90;;;;;;4950848;28;20209;-87
2023/10/18 09:18:25;;;;;;;16.27;14.50;;;15.20;99.90;;;;;;4936399;29;20186;-87
2023/10/18 09:20:55;;;;;;;17.33;14.32;;;12.00;99.30;;;;;;4928893;29;20648;-87
2023/10/18 09:23:22;;;;;;;16.65;14.88;;;13.60;99.90;;;;;;4933785;29;20693;-87
2023/10/18 09:40:18;;;;;;;15.30;13.70;;;13.30;98.30;;;;;;5073883;23;20238;-84
2023/10/18 09:42:44;;;;;;;18.85;14.43;;;13.40;98.40;;;;;;4970620;28;20642;-84
2023/10/18 09:45:10;;;;;;;16.90;15.13;;;12.40;98.10;;;;;;4953462;28;20216;-84
2023/10/18 09:47:36;;;;;;;21.13;16.77;;;13.20;98.20;;;;;;4957256;28;20672;-85
2023/10/18 09:50:08;;;;;;;19.10;15.48;;;13.30;97.90;;;;;;4955792;28;20202;-83
2023/10/18 09:52:47;;;;;;;15.48;13.93;;;13.50;97.90;;;;;;4954694;28;20324;-83
2023/10/18 09:55:17;;;;;;;15.35;13.75;;;13.40;98.10;;;;;;4957156;28;20195;-83
2023/10/18 09:57:49;;;;;;;18.38;15.23;;;13.70;97.40;;;;;;4959273;28;20177;-83
2023/10/18 10:00:16;;;;;;;17.52;15.70;;;13.80;97.40;;;;;;4966470;28;20549;-83
2023/10/18 10:02:52;;;;;;;17.48;15.32;;;13.90;97.00;;;;;;4965711;28;20260;-83
2023/10/18 10:05:25;;;;;;;24.98;20.42;;;13.90;97.00;;;;;;4961197;28;20184;-82
2023/10/18 10:08:00;;;;;;;16.70;14.88;;;13.80;96.30;;;;;;4956726;28;20560;-84
2023/10/18 10:10:43;;;;;;;20.33;18.05;;;14.00;96.60;;;;;;4951983;28;20232;-83
2023/10/18 10:13:25;;;;;;;18.05;14.93;;;13.50;96.50;;;;;;4951746;28;20623;-83
2023/10/18 10:15:54;;;;;;;17.13;14.32;;;13.40;96.30;;;;;;4953707;28;20192;-83
2023/10/18 10:18:28;;;;;;;16.95;13.98;;;13.40;96.60;;;;;;4952888;28;20263;-83
2023/10/18 10:20:58;;;;;;;14.57;13.07;;;13.70;96.60;;;;;;4969449;28;20180;-83
2023/10/18 10:23:24;;;;;;;15.70;14.10;;;14.00;96.40;;;;;;4954533;28;20213;-83
2023/10/18 10:26:11;;;;;;;15.47;13.90;;;14.20;96.40;;;;;;4956858;28;20193;-82
2023/10/18 10:32:06;;;;;;;13.90;12.55;;;14.00;95.90;;;;;;4953518;28;20606;-83
2023/10/18 10:34:41;;;;;;;13.23;11.77;;;14.50;95.00;;;;;;4951612;28;20202;-83
2023/10/18 10:37:09;;;;;;;16.77;12.95;;;14.10;94.70;;;;;;4951974;28;20538;-84
2023/10/18 10:39:44;;;;;;;14.93;12.40;;;14.80;94.70;;;;;;4949973;28;20197;-84
2023/10/18 10:45:11;;;;;;;15.50;12.25;;;15.20;93.80;;;;;;4956652;28;20590;-83
2023/10/18 10:47:43;;;;;;;9.50;8.52;;;15.30;93.70;;;;;;4960696;28;20252;-82
2023/10/18 10:50:09;;;;;;;11.65;10.30;;;16.50;91.90;;;;;;4966080;28;20197;-82
2023/10/18 10:52:40;;;;;;;15.18;12.00;;;18.00;88.10;;;;;;4954670;28;20240;-83
2023/10/18 10:55:22;;;;;;;13.57;12.18;;;18.70;85.40;;;;;;4957918;28;20296;-86
2023/10/18 10:57:50;;;;;;;13.52;11.90;;;18.60;83.30;;;;;;4950692;28;20189;-87
2023/10/18 11:03:13;;;;;;;13.77;12.38;;;19.00;80.20;;;;;;4958447;28;20216;-87
2023/10/18 11:05:39;;;;;;;13.93;12.52;;;18.70;80.50;;;;;;4953932;28;20256;-87
2023/10/18 11:08:05;;;;;;;14.88;13.38;;;19.80;79.90;;;;;;4954660;28;20642;-87
2023/10/18 11:10:40;;;;;;;16.23;12.82;;;20.10;77.90;;;;;;4956622;28;20204;-87
2023/10/18 11:13:07;;;;;;;14.52;13.02;;;20.30;76.50;;;;;;4957466;28;20204;-89
2023/10/18 11:15:36;;;;;;;14.07;12.77;;;20.60;75.80;;;;;;4957161;28;20272;-90
2023/10/18 11:18:20;;;;;;;13.32;11.93;;;20.00;76.30;;;;;;4958987;28;20191;-89
2023/10/18 11:20:58;;;;;;;15.95;13.55;;;19.30;76.50;;;;;;4967151;28;20188;-88
2023/10/18 11:23:29;;;;;;;14.40;12.93;;;18.60;78.60;;;;;;4961370;28;20243;-89
2023/10/18 11:25:56;;;;;;;14.00;12.70;;;18.10;79.70;;;;;;4954356;28;20189;-87
2023/10/18 11:28:28;;;;;;;13.73;12.43;;;17.40;81.50;;;;;;4955448;28;20216;-87
2023/10/18 11:30:56;;;;;;;14.73;12.50;;;17.30;83.90;;;;;;4956392;28;20208;-88
2023/10/18 11:33:37;;;;;;;17.92;13.80;;;16.80;85.20;;;;;;4957453;28;20291;-88
2023/10/18 11:36:08;;;;;;;13.07;11.20;;;16.60;86.20;;;;;;4960964;28;20173;-87
2023/10/18 11:38:34;;;;;;;14.80;11.98;;;16.40;86.50;;;;;;4975668;28;20204;-87
2023/10/18 11:41:09;;;;;;;14.65;11.82;;;17.00;87.80;;;;;;4976891;28;20174;-87
2023/10/18 11:43:39;;;;;;;13.88;12.55;;;16.50;87.60;;;;;;4960440;28;20217;-87
2023/10/18 11:46:06;;;;;;;12.63;11.18;;;16.80;87.70;;;;;;4955613;28;20264;-86
2023/10/18 11:48:34;;;;;;;12.70;11.50;;;17.50;87.40;;;;;;4956737;28;20287;-87
2023/10/18 11:51:02;;;;;;;14.23;11.57;;;17.60;86.90;;;;;;4955553;28;20217;-87
2023/10/18 11:53:28;;;;;;;12.80;11.50;;;17.60;85.90;;;;;;4950804;28;20725;-88
2023/10/18 11:55:55;;;;;;;14.20;12.10;;;17.40;86.70;;;;;;4955189;28;20569;-88
2023/10/18 11:58:22;;;;;;;13.13;11.70;;;17.50;87.00;;;;;;4952180;28;20192;-87
2023/10/18 12:00:47;;;;;;;12.30;11.00;;;17.30;86.70;;;;;;4958136;28;20278;-88
2023/10/18 12:03:14;;;;;;;11.73;10.63;;;17.30;87.30;;;;;;4955043;28;20283;-89
2023/10/18 12:05:42;;;;;;;12.85;11.45;;;17.60;87.30;;;;;;4956387;28;20191;-89
2023/10/18 12:08:12;;;;;;;15.40;12.00;;;17.00;86.20;;;;;;4940379;28;20264;-89
2023/10/18 12:10:38;;;;;;;13.15;11.85;;;17.40;86.70;;;;;;4954488;28;20240;-89
2023/10/18 12:13:12;;;;;;;12.15;10.90;;;17.30;87.60;;;;;;4952355;28;20584;-90
2023/10/18 12:15:38;;;;;;;10.68;9.63;;;17.30;87.40;;;;;;4950884;28;20200;-88
2023/10/18 12:18:05;;;;;;;10.20;9.20;;;17.20;86.50;;;;;;4955423;28;20189;-87
2023/10/18 12:20:35;;;;;;;10.77;9.48;;;17.10;86.90;;;;;;4956123;28;20192;-88
2023/10/18 12:23:02;;;;;;;11.55;10.35;;;17.30;87.50;;;;;;4952679;28;20682;-89
2023/10/18 12:25:28;;;;;;;11.32;10.32;;;17.10;86.10;;;;;;4954867;28;20188;-90
2023/10/18 12:27:55;;;;;;;11.57;10.35;;;17.20;87.60;;;;;;4952961;28;20247;-89
2023/10/18 12:30:27;;;;;;;10.80;9.70;;;17.40;87.20;;;;;;4953077;28;20243;-90
2023/10/18 12:32:57;;;;;;;10.48;9.48;;;16.70;87.30;;;;;;4954891;28;20220;-87
2023/10/18 12:35:28;;;;;;;10.70;9.65;;;16.50;89.00;;;;;;4958095;28;20666;-87
2023/10/18 12:37:54;;;;;;;9.70;8.73;;;17.10;89.20;;;;;;4957245;28;20180;-90
2023/10/18 12:40:40;;;;;;;11.65;10.45;;;17.20;88.00;;;;;;4957982;28;20759;-86
2023/10/18 12:43:17;;;;;;;16.48;12.05;;;17.80;89.00;;;;;;4959010;28;20228;-88
2023/10/18 12:45:47;;;;;;;11.40;10.25;;;18.10;88.60;;;;;;4955248;28;20188;-87
2023/10/18 12:48:14;;;;;;;9.23;8.40;;;17.50;87.10;;;;;;4957469;28;20185;-87
2023/10/18 12:50:47;;;;;;;14.20;11.93;;;17.70;87.80;;;;;;4958159;28;20280;-86
2023/10/18 12:55:59;;;;;;;9.43;8.43;;;17.20;87.30;;;;;;4961747;28;20192;-85
2023/10/18 12:58:31;;;;;;;18.52;11.00;;;17.20;87.40;;;;;;4954095;28;20188;-86
2023/10/18 13:01:06;;;;;;;14.15;11.40;;;16.50;87.60;;;;;;4959371;28;20221;-87
2023/10/18 13:03:44;;;;;;;9.05;8.13;;;16.80;88.40;;;;;;4972556;28;20247;-87
2023/10/18 13:06:15;;;;;;;9.32;8.32;;;17.40;88.90;;;;;;4961429;28;20191;-88
2023/10/18 13:08:55;;;;;;;13.40;10.05;;;16.70;88.20;;;;;;4954414;28;20284;-88
2023/10/18 13:11:44;;;;;;;12.27;9.38;;;17.00;88.20;;;;;;4951735;29;20217;-88
2023/10/18 13:14:17;;;;;;;10.30;8.68;;;16.90;88.00;;;;;;4963779;28;20205;-88
2023/10/18 13:16:43;;;;;;;11.05;9.00;;;17.00;88.00;;;;;;4955667;28;20717;-88
2023/10/18 13:19:14;;;;;;;9.48;8.30;;;16.80;88.20;;;;;;4952047;28;20704;-90
2023/10/18 13:21:40;;;;;;;6.32;5.60;;;16.80;88.90;;;;;;4953961;28;20563;-89
2023/10/18 13:26:53;;;;;;;5.38;4.75;;;17.10;85.70;;;;;;4958485;28;20181;-85
2023/10/18 13:31:49;;;;;;;5.70;5.10;;;17.40;85.50;;;;;;4960083;28;20189;-87
2023/10/18 13:34:18;;;;;;;5.50;4.90;;;18.10;85.70;;;;;;4961494;28;20347;-86
2023/10/18 13:36:54;;;;;;;5.10;4.70;;;17.90;85.60;;;;;;4961431;28;20188;-86
2023/10/18 13:39:23;;;;;;;4.45;4.15;;;17.60;83.10;;;;;;4959461;28;20214;-86
2023/10/18 13:41:49;;;;;;;5.38;4.88;;;17.30;82.90;;;;;;4958364;28;20181;-86
2023/10/18 13:44:23;;;;;;;4.97;4.47;;;17.40;83.50;;;;;;4954142;28;20441;-87
2023/10/18 13:46:54;;;;;;;5.28;4.78;;;17.70;83.70;;;;;;4956189;28;20783;-87
2023/10/18 13:49:24;;;;;;;5.57;5.05;;;17.10;83.70;;;;;;4954596;28;20205;-86
2023/10/18 13:51:52;;;;;;;5.57;4.90;;;17.10;84.20;;;;;;4956276;28;20311;-86
2023/10/18 13:54:18;;;;;;;6.53;5.03;;;17.80;85.50;;;;;;4959415;28;20201;-86
2023/10/18 13:56:44;;;;;;;5.40;4.90;;;17.10;85.00;;;;;;4964970;28;20191;-85
2023/10/18 13:59:10;;;;;;;5.40;4.80;;;17.00;85.40;;;;;;4961895;28;20181;-85
2023/10/18 14:01:38;;;;;;;5.93;5.32;;;18.40;87.40;;;;;;4967118;28;20256;-86
2023/10/18 14:04:05;;;;;;;8.27;5.53;;;17.20;86.60;;;;;;4960798;28;20205;-86
2023/10/18 14:06:32;;;;;;;8.35;7.20;;;17.10;85.20;;;;;;4954143;28;20177;-87
2023/10/18 14:08:58;;;;;;;7.00;5.50;;;17.30;86.30;;;;;;4955392;28;20195;-87
2023/10/18 14:11:25;;;;;;;7.60;6.90;;;17.40;87.00;;;;;;4952619;28;20308;-87
2023/10/18 14:13:55;;;;;;;6.22;5.63;;;17.20;86.40;;;;;;4966916;28;20204;-87
2023/10/18 14:16:21;;;;;;;8.40;6.35;;;17.50;87.00;;;;;;4950028;28;20185;-87
2023/10/18 14:18:47;;;;;;;7.93;6.18;;;16.90;85.10;;;;;;4954737;28;20359;-86
2023/10/18 14:21:14;;;;;;;7.13;6.50;;;17.10;84.60;;;;;;4967972;28;20197;-86
2023/10/18 14:23:47;;;;;;;6.60;6.07;;;16.80;84.30;;;;;;4955925;28;20793;-89
2023/10/18 14:26:17;;;;;;;6.80;6.13;;;16.90;84.80;;;;;;4956501;28;20188;-89
2023/10/18 14:28:45;;;;;;;6.40;5.50;;;16.60;85.10;;;;;;4963460;28;20208;-89
2023/10/18 14:31:15;;;;;;;6.78;6.07;;;16.60;86.80;;;;;;4955580;28;20211;-89
2023/10/18 14:33:42;;;;;;;7.45;6.50;;;16.60;86.50;;;;;;4953152;28;20204;-86
2023/10/18 14:36:09;;;;;;;7.43;6.63;;;16.90;86.50;;;;;;4954233;28;20191;-89
2023/10/18 14:38:35;;;;;;;11.98;10.35;;;16.40;86.50;;;;;;4955813;28;20201;-89
2023/10/18 14:41:08;;;;;;;7.50;6.70;;;16.20;87.40;;;;;;4956862;28;20195;-88
2023/10/18 14:43:48;;;;;;;7.50;6.80;;;16.30;87.70;;;;;;4960870;28;20466;-90
2023/10/18 14:46:17;;;;;;;8.93;8.02;;;16.50;89.10;;;;;;4958173;28;21306;-89
2023/10/18 14:48:44;;;;;;;8.63;7.78;;;16.20;90.40;;;;;;4956982;28;21733;-88
2023/10/18 14:51:09;;;;;;;8.77;7.88;;;16.30;92.50;;;;;;4964954;28;20205;-88
2023/10/18 14:53:40;;;;;;;8.50;7.70;;;15.80;94.30;;;;;;4965370;28;20219;-86